WEATHER DATA

TODAY
Time Temp. Dewp. Hum. Wind dir Wind speed Wind gust Bar. 1h Prec. 24h Prec.
00:06 14.4 0.6 39 270 0.6 1.1 1015.5 0.0000 0.0000
00:26 14 1 41 270 0.6 1.1 1015.7 0.0000 0.0000
00:36 13.9 0.9 41 270 0.6 1.1 1015.7 0.0000 0.0000
00:46 13.8 1.1 42 270 0.6 1.1 1015.7 0.0000 0.0000
00:56 13.7 1 42 270 0.6 1.1 1015.7 0.0000 0.0000
01:06 13.6 1.3 43 270 0.6 1.1 1015.8 0.0000 0.0000
01:17 13.4 1.4 44 270 0.6 1.1 1015.8 0.0000 0.0000
01:27 13.1 1.1 44 128 0.3 0.8 1015.8 0.0000 0.0000
01:37 12.9 1.3 45 135 0.3 0.6 1015.7 0.0000 0.0000
01:47 12.6 1 45 135 0.3 0.6 1015.7 0.0000 0.0000
01:57 12.5 0.9 45 123 0.3 0.8 1015.8 0.0000 0.0000
02:07 12.3 0.7 45 135 0.3 0.6 1015.8 0.0000 0.0000
02:17 12.3 0.7 45 123 0.3 0.6 1015.7 0.0000 0.0000
02:28 12.2 0.9 46 135 0.3 0.6 1015.7 0.0000 0.0000
02:38 12.1 0.8 46 90 0.3 0.6 1015.7 0.0000 0.0000
02:48 11.9 0.7 46 0 0.6 1015.6 0.0000 0.0000
02:58 11.8 0.6 46 135 0.3 0.8 1015.6 0.0000 0.0000
03:08 11.7 0.5 46 171 0.3 0.8 1015.5 0.0000 0.0000
03:18 11.6 0.4 46 90 0.3 0.6 1015.5 0.0000 0.0000
03:28 11.5 0.3 46 174 0.3 0.8 1015.5 0.0000 0.0000
03:38 11.4 0.2 46 144 0.6 1.4 1015.5 0.0000 0.0000
03:49 11.2 0.3 47 161 0.3 1.7 1015.5 0.0000 0.0000
03:59 11.2 0.3 47 128 0.3 1.1 1015.5 0.0000 0.0000
04:09 11.1 0.2 47 147 0.3 1.1 1015.5 0.0000 0.0000
04:19 11 0.1 47 180 0.3 0.8 1015.5 0.0000 0.0000
04:29 10.9 0.3 48 198 0.3 0.6 1015.5 0.0000 0.0000
04:39 10.8 0.2 48 206 0.3 1.1 1015.5 0.0000 0.0000
04:49 10.7 0.1 48 198 0.3 1.1 1015.5 0.0000 0.0000
05:00 10.7 0.1 48 219 0.3 0.8 1015.5 0.0000 0.0000
05:10 10.7 0.1 48 195 0.3 1.7 1015.6 0.0000 0.0000
05:19 10.7 0.1 48 213 0.3 0.8 1015.6 0.0000 0.0000
05:29 10.7 0.1 48 225 0.3 1.1 1015.7 0.0000 0.0000
05:40 11.7 0.8 47 270 0.3 0.6 1015.6 0.0000 0.0000
05:50 11.3 0.7 48 270 0.6 1.4 1015.7 0.0000 0.0000
06:00 12.4 1.7 48 270 0.3 1.1 1015.7 0.0000 0.0000
06:10 11.9 1 47 270 0.6 1.1 1015.7 0.0000 0.0000
06:20 12 1 47 239 0.3 0.8 1015.7 0.0000 0.0000
06:30 11.6 1.5 50 270 0.6 1.7 1015.8 0.0000 0.0000
06:40 11.8 1.2 48 270 0.6 1.4 1015.6 0.0000 0.0000
06:51 11.2 0.9 49 225 0.3 1.4 1015.7 0.0000 0.0000
07:00 10.7 0.7 50 198 0.3 0.8 1015.7 0.0000 0.0000
07:10 10.5 0.8 51 156 0.3 1.1 1015.8 0.0000 0.0000
07:21 10.3 0.6 51 164 0.3 1.1 1015.9 0.0000 0.0000
07:31 10.3 0.6 51 146 0.3 1.1 1015.9 0.0000 0.0000
07:40 10.2 0.8 52 270 0.3 0.6 1016.1 0.0000 0.0000
07:50 10.3 0.9 52 208 0.3 0.8 1016 0.0000 0.0000
08:01 10.3 0.9 52 239 0.3 1.1 1016.2 0.0000 0.0000
08:11 10.4 1 52 270 0.6 1.1 1016.2 0.0000 0.0000
08:21 10.4 1 52 270 0.6 0.8 1016.2 0.0000 0.0000
08:31 10.5 1.1 52 255 0.6 0.8 1016.3 0.0000 0.0000
08:41 10.5 0.8 51 270 0.6 1.1 1016.3 0.0000 0.0000
08:51 10.5 1.1 52 270 0.6 1.1 1016.4 0.0000 0.0000
09:01 10.5 1.1 52 270 0.6 1.1 1016.4 0.0000 0.0000
09:11 10.5 1.1 52 216 0.3 1.1 1016.5 0.0000 0.0000
09:21 10.8 1.3 52 234 0.3 1.1 1016.5 0.0000 0.0000
09:31 11.2 1.4 51 165 0.3 1.4 1016.6 0.0000 0.0000
09:42 11.4 1.6 51 225 0.3 0.6 1016.6 0.0000 0.0000
09:52 11.9 1.8 50 225 0.3 0.8 1016.8 0.0000 0.0000
10:01 12.2 2.1 50 216 0.3 0.8 1016.9 0.0000 0.0000
10:11 12.4 2.3 50 203 0.3 1.1 1017 0.0000 0.0000
10:22 12.5 2.4 50 220 0.3 1.1 1017.1 0.0000 0.0000
10:32 12.6 2.5 50 252 0.6 1.1 1017.2 0.0000 0.0000
10:42 12.6 2.5 50 270 0.6 1.7 1017.2 0.0000 0.0000
10:52 12.8 2.6 50 270 0.6 1.1 1017.2 0.0000 0.0000
11:03 12.9 2.7 50 270 0.6 1.1 1017.1 0.0000 0.0000
11:13 13 2.8 50 270 0.6 1.1 1017.2 0.0000 0.0000
11:22 13.1 2.9 50 270 0.3 0.8 1017.4 0.0000 0.0000
11:33 13.3 3.1 50 270 0.3 0.8 1017.5 0.0000 0.0000
11:43 13.6 3.4 50 230 0.3 0.6 1017.4 0.0000 0.0000
11:53 13.8 3.6 50 237 0.3 0.8 1017.4 0.0000 0.0000
12:03 13.8 3.8 51 270 0.3 1.4 1017.3 0.0000 0.0000
12:13 14.3 4 50 225 0.3 0.8 1017.2 0.0000 0.0000
12:23 14.8 4.5 50 225 0.3 1.4 1017.2 0.0000 0.0000
12:33 14.9 4.6 50 270 0.3 2.2 1017.2 0.0000 0.0000
12:44 15 4.4 49 135 0.3 0.6 1017.2 0.0000 0.0000
12:53 15.3 4.4 48 171 0.3 0.6 1017.2 0.0000 0.0000
13:03 15.4 4.2 47 194 0.3 0.6 1017.1 0.0000 0.0000
13:13 15.5 4.2 47 198 0.3 0.6 1017.1 0.0000 0.0000
13:24 15.5 4.2 47 218 0.3 0.8 1017.1 0.0000 0.0000
13:34 15.4 4.2 47 270 0.6 1.1 1017.1 0.0000 0.0000
13:44 15.4 4.2 47 270 0.6 1.1 1017 0.0000 0.0000
13:54 15.4 4.5 48 270 0.6 1.1 1017 0.0000 0.0000
14:04 15.3 4.4 48 270 0.6 1.1 1017 0.0000 0.0000
14:14 15.3 4.4 48 270 0.6 1.1 1017.1 0.0000 0.0000
14:24 15.2 4.6 49 270 0.6 1.1 1017.1 0.0000 0.0000
14:35 15 4.7 50 270 0.6 1.1 1017 0.0000 0.0000
14:45 14.9 4.6 50 270 0.6 1.1 1017 0.0000 0.0000
14:55 14.8 4.5 50 270 0.6 1.1 1017 0.0000 0.0000
15:05 14.6 4.6 51 270 0.6 1.1 1017.1 0.0000 0.0000
15:15 14.4 4.4 51 270 0.6 1.1 1017.2 0.0000 0.0000
15:25 14.4 4.4 51 270 0.6 1.1 1017.3 0.0000 0.0000
15:35 14.3 4.3 51 270 0.8 1.7 1017.3 0.0000 0.0000
15:46 13.9 4.2 52 270 0.8 1.7 1017.2 0.0000 0.0000
15:56 13.6 4.2 53 270 0.8 1.7 1017.3 0.0000 0.0000
16:06 13.6 4.2 53 270 0.6 1.1 1017.3 0.0000 0.0000
16:15 13.6 4.2 53 270 0.6 1.1 1017.2 0.0000 0.0000
16:26 13.6 4.2 53 270 0.6 1.1 1017.3 0.0000 0.0000
16:36 13.6 4.2 53 270 0.6 1.1 1017.1 0.0000 0.0000
16:45 13.6 4.2 53 270 0.6 0.8 1017.4 0.0000 0.0000
16:56 14.8 4.8 51 0 0.6 1017.3 0.0000 0.0000
17:07 14.5 4.5 51 0 0.3 1017.2 0.0000 0.0000
17:17 14.3 4.6 52 217 0.3 0.8 1017.1 0.0000 0.0000

DAY STATISTIC

2019-02-19
TEMPERATURE
AVERAGE
12.7
HIGH
15.5
13:13
LOW
10.2
07:40
PRESSURE
AVERAGE
1016.4
HIGH
1017.5
11:33
LOW
1015.5
00:06
DEWPOINT
AVERAGE
2.1
HIGH
4.8
16:56
LOW
0.1
04:19
HUMIDITY
AVERAGE
49
HIGH
53
15:56
LOW
39
00:06
WIND SPEED
AVERAGE
0.4
HIGH
0.8
15:35
WIND GUST
AVERAGE
1.0
HIGH
2.2
12:33
WIND DIRECTION
PREVAILING
W
48%
N
0.0
NE
0.0
E
2.0
SE
13.7
S
13.7
SW
19.6
W
48.0
NW
0.0
PRECIPITATION
RAIN HOUR
0.0
RAIN DAY
0.0
TEMPERATURE (°C)
LOW
10.2
HIGH
15.5
AVERAGE
12.7
PRESSURE (hpa)
LOW
1015.5
HIGH
1017.5
AVERAGE
1016.4
DEVICE